sensor_id;sensor_type;location;lat;lon;timestamp;temperature;humidity
42973;DHT22;28610;51.214;6.962;2022-07-03T00:01:50;20.00;62.30
42973;DHT22;28610;51.214;6.962;2022-07-03T00:04:35;19.90;62.60
42973;DHT22;28610;51.214;6.962;2022-07-03T00:07:22;20.10;62.70
42973;DHT22;28610;51.214;6.962;2022-07-03T00:10:08;20.10;62.50
42973;DHT22;28610;51.214;6.962;2022-07-03T00:12:53;20.10;63.10
42973;DHT22;28610;51.214;6.962;2022-07-03T00:15:39;20.10;63.20
42973;DHT22;28610;51.214;6.962;2022-07-03T00:18:24;19.90;64.00
42973;DHT22;28610;51.214;6.962;2022-07-03T00:21:11;19.90;64.40
42973;DHT22;28610;51.214;6.962;2022-07-03T00:24:02;19.80;64.70
42973;DHT22;28610;51.214;6.962;2022-07-03T00:26:50;19.80;65.50
42973;DHT22;28610;51.214;6.962;2022-07-03T00:29:37;19.80;64.80
42973;DHT22;28610;51.214;6.962;2022-07-03T00:32:24;19.60;65.90
42973;DHT22;28610;51.214;6.962;2022-07-03T00:35:10;19.60;66.10
42973;DHT22;28610;51.214;6.962;2022-07-03T00:37:56;19.50;66.30
42973;DHT22;28610;51.214;6.962;2022-07-03T00:40:43;19.50;66.60
42973;DHT22;28610;51.214;6.962;2022-07-03T00:43:28;19.60;66.40
42973;DHT22;28610;51.214;6.962;2022-07-03T00:46:14;19.50;66.30
42973;DHT22;28610;51.214;6.962;2022-07-03T00:49:00;19.50;66.50
42973;DHT22;28610;51.214;6.962;2022-07-03T00:51:50;19.70;65.90
42973;DHT22;28610;51.214;6.962;2022-07-03T00:54:41;19.70;66.30
42973;DHT22;28610;51.214;6.962;2022-07-03T00:57:29;19.60;66.70
42973;DHT22;28610;51.214;6.962;2022-07-03T01:00:16;19.60;66.80
42973;DHT22;28610;51.214;6.962;2022-07-03T01:03:05;19.60;66.60
42973;DHT22;28610;51.214;6.962;2022-07-03T01:05:53;19.50;67.10
42973;DHT22;28610;51.214;6.962;2022-07-03T01:08:42;19.40;67.80
42973;DHT22;28610;51.214;6.962;2022-07-03T01:11:36;19.30;68.10
42973;DHT22;28610;51.214;6.962;2022-07-03T01:14:28;19.30;67.70
42973;DHT22;28610;51.214;6.962;2022-07-03T01:17:20;19.20;68.50
42973;DHT22;28610;51.214;6.962;2022-07-03T01:20:07;19.20;68.10
42973;DHT22;28610;51.214;6.962;2022-07-03T01:22:57;19.20;68.70
42973;DHT22;28610;51.214;6.962;2022-07-03T01:25:47;19.00;70.10
42973;DHT22;28610;51.214;6.962;2022-07-03T01:28:36;19.00;69.80
42973;DHT22;28610;51.214;6.962;2022-07-03T01:31:23;19.00;70.40
42973;DHT22;28610;51.214;6.962;2022-07-03T01:34:13;19.00;70.00
42973;DHT22;28610;51.214;6.962;2022-07-03T01:37:00;18.90;70.50
42973;DHT22;28610;51.214;6.962;2022-07-03T01:39:51;18.90;71.50
42973;DHT22;28610;51.214;6.962;2022-07-03T01:42:39;18.90;71.90
42973;DHT22;28610;51.214;6.962;2022-07-03T01:45:27;19.00;71.00
42973;DHT22;28610;51.214;6.962;2022-07-03T01:48:14;18.90;70.90
42973;DHT22;28610;51.214;6.962;2022-07-03T01:51:00;18.90;71.30
42973;DHT22;28610;51.214;6.962;2022-07-03T01:53:47;18.80;72.10
42973;DHT22;28610;51.214;6.962;2022-07-03T01:56:34;18.80;72.10
42973;DHT22;28610;51.214;6.962;2022-07-03T01:59:21;18.80;72.70
42973;DHT22;28610;51.214;6.962;2022-07-03T02:02:14;18.60;74.30
42973;DHT22;28610;51.214;6.962;2022-07-03T02:05:05;18.60;74.80
42973;DHT22;28610;51.214;6.962;2022-07-03T02:08:10;18.60;74.90
42973;DHT22;28610;51.214;6.962;2022-07-03T02:11:11;18.50;74.70
42973;DHT22;28610;51.214;6.962;2022-07-03T02:14:10;18.60;74.50
42973;DHT22;28610;51.214;6.962;2022-07-03T02:17:03;18.60;75.00
42973;DHT22;28610;51.214;6.962;2022-07-03T02:19:55;18.70;75.20
42973;DHT22;28610;51.214;6.962;2022-07-03T02:22:42;18.70;75.30
42973;DHT22;28610;51.214;6.962;2022-07-03T02:25:34;18.70;75.50
42973;DHT22;28610;51.214;6.962;2022-07-03T02:28:25;18.60;76.30
42973;DHT22;28610;51.214;6.962;2022-07-03T02:31:14;18.60;76.50
42973;DHT22;28610;51.214;6.962;2022-07-03T02:34:05;18.50;77.10
42973;DHT22;28610;51.214;6.962;2022-07-03T02:36:56;18.40;77.30
42973;DHT22;28610;51.214;6.962;2022-07-03T02:39:45;18.30;77.90
42973;DHT22;28610;51.214;6.962;2022-07-03T02:42:38;18.20;78.60
42973;DHT22;28610;51.214;6.962;2022-07-03T02:45:25;18.20;78.90
42973;DHT22;28610;51.214;6.962;2022-07-03T02:48:24;18.20;78.60
42973;DHT22;28610;51.214;6.962;2022-07-03T02:51:19;18.20;78.10
42973;DHT22;28610;51.214;6.962;2022-07-03T02:54:11;18.10;79.10
42973;DHT22;28610;51.214;6.962;2022-07-03T02:57:04;18.00;79.70
42973;DHT22;28610;51.214;6.962;2022-07-03T02:59:55;18.10;79.50
42973;DHT22;28610;51.214;6.962;2022-07-03T03:02:54;18.10;79.20
42973;DHT22;28610;51.214;6.962;2022-07-03T03:05:43;18.00;79.90
42973;DHT22;28610;51.214;6.962;2022-07-03T03:08:36;18.00;79.30
42973;DHT22;28610;51.214;6.962;2022-07-03T03:11:24;17.90;79.90
42973;DHT22;28610;51.214;6.962;2022-07-03T03:14:14;18.00;80.10
42973;DHT22;28610;51.214;6.962;2022-07-03T03:17:01;18.00;79.90
42973;DHT22;28610;51.214;6.962;2022-07-03T03:19:52;17.90;80.10
42973;DHT22;28610;51.214;6.962;2022-07-03T03:22:52;17.90;79.70
42973;DHT22;28610;51.214;6.962;2022-07-03T03:25:43;17.90;80.40
42973;DHT22;28610;51.214;6.962;2022-07-03T03:28:29;17.80;80.90
42973;DHT22;28610;51.214;6.962;2022-07-03T03:31:15;17.90;80.40
42973;DHT22;28610;51.214;6.962;2022-07-03T03:34:03;17.80;80.70
42973;DHT22;28610;51.214;6.962;2022-07-03T03:36:49;17.90;80.60
42973;DHT22;28610;51.214;6.962;2022-07-03T03:39:34;18.00;81.40
42973;DHT22;28610;51.214;6.962;2022-07-03T03:42:21;18.00;80.00
42973;DHT22;28610;51.214;6.962;2022-07-03T03:45:07;18.10;79.20
42973;DHT22;28610;51.214;6.962;2022-07-03T03:47:53;18.10;78.50
42973;DHT22;28610;51.214;6.962;2022-07-03T03:50:39;18.20;77.60
42973;DHT22;28610;51.214;6.962;2022-07-03T03:53:27;18.20;77.30
42973;DHT22;28610;51.214;6.962;2022-07-03T03:56:13;18.20;76.90
42973;DHT22;28610;51.214;6.962;2022-07-03T03:59:00;18.30;76.90
42973;DHT22;28610;51.214;6.962;2022-07-03T04:01:45;18.30;76.50
42973;DHT22;28610;51.214;6.962;2022-07-03T04:04:31;18.10;76.70
42973;DHT22;28610;51.214;6.962;2022-07-03T04:07:17;18.00;79.90
42973;DHT22;28610;51.214;6.962;2022-07-03T04:10:02;18.00;79.40
42973;DHT22;28610;51.214;6.962;2022-07-03T04:12:48;18.10;78.90
42973;DHT22;28610;51.214;6.962;2022-07-03T04:15:34;18.00;80.00
42973;DHT22;28610;51.214;6.962;2022-07-03T04:18:20;18.00;78.70
42973;DHT22;28610;51.214;6.962;2022-07-03T04:21:05;18.10;79.80
42973;DHT22;28610;51.214;6.962;2022-07-03T04:23:51;18.10;78.60
42973;DHT22;28610;51.214;6.962;2022-07-03T04:26:36;18.20;78.70
42973;DHT22;28610;51.214;6.962;2022-07-03T04:29:22;18.20;78.70
42973;DHT22;28610;51.214;6.962;2022-07-03T04:32:09;18.20;79.30
42973;DHT22;28610;51.214;6.962;2022-07-03T04:34:55;18.20;79.60
42973;DHT22;28610;51.214;6.962;2022-07-03T04:37:41;18.30;79.70
42973;DHT22;28610;51.214;6.962;2022-07-03T04:40:26;18.30;79.40
42973;DHT22;28610;51.214;6.962;2022-07-03T04:43:12;18.50;79.00
42973;DHT22;28610;51.214;6.962;2022-07-03T04:45:57;18.90;78.40
42973;DHT22;28610;51.214;6.962;2022-07-03T04:48:44;18.50;78.10
42973;DHT22;28610;51.214;6.962;2022-07-03T04:51:29;18.50;78.10
42973;DHT22;28610;51.214;6.962;2022-07-03T04:54:15;20.20;76.70
42973;DHT22;28610;51.214;6.962;2022-07-03T04:57:00;20.10;72.10
42973;DHT22;28610;51.214;6.962;2022-07-03T04:59:46;21.10;70.90
42973;DHT22;28610;51.214;6.962;2022-07-03T05:02:31;22.20;66.30
42973;DHT22;28610;51.214;6.962;2022-07-03T05:05:19;22.60;63.50
42973;DHT22;28610;51.214;6.962;2022-07-03T05:08:05;22.60;62.40
42973;DHT22;28610;51.214;6.962;2022-07-03T05:10:51;23.00;59.50
42973;DHT22;28610;51.214;6.962;2022-07-03T05:13:36;23.50;57.60
42973;DHT22;28610;51.214;6.962;2022-07-03T05:16:22;23.50;55.50
42973;DHT22;28610;51.214;6.962;2022-07-03T05:19:07;24.10;54.70
42973;DHT22;28610;51.214;6.962;2022-07-03T05:21:54;24.40;49.00
42973;DHT22;28610;51.214;6.962;2022-07-03T05:24:40;24.50;48.40
42973;DHT22;28610;51.214;6.962;2022-07-03T05:27:25;24.40;48.20
42973;DHT22;28610;51.214;6.962;2022-07-03T05:30:11;24.00;50.30
42973;DHT22;28610;51.214;6.962;2022-07-03T05:32:57;23.50;51.40
42973;DHT22;28610;51.214;6.962;2022-07-03T05:35:42;23.60;55.30
42973;DHT22;28610;51.214;6.962;2022-07-03T05:38:30;24.60;51.30
42973;DHT22;28610;51.214;6.962;2022-07-03T05:41:33;25.50;47.10
42973;DHT22;28610;51.214;6.962;2022-07-03T05:44:19;25.40;44.70
42973;DHT22;28610;51.214;6.962;2022-07-03T05:47:05;26.10;44.70
42973;DHT22;28610;51.214;6.962;2022-07-03T05:49:50;26.30;43.00
42973;DHT22;28610;51.214;6.962;2022-07-03T05:52:36;26.40;42.10
42973;DHT22;28610;51.214;6.962;2022-07-03T05:55:23;26.50;42.10
42973;DHT22;28610;51.214;6.962;2022-07-03T05:58:08;26.00;42.10
42973;DHT22;28610;51.214;6.962;2022-07-03T06:00:54;26.30;41.90
42973;DHT22;28610;51.214;6.962;2022-07-03T06:03:39;26.20;40.60
42973;DHT22;28610;51.214;6.962;2022-07-03T06:06:25;25.50;42.30
42973;DHT22;28610;51.214;6.962;2022-07-03T06:09:10;25.50;42.90
42973;DHT22;28610;51.214;6.962;2022-07-03T06:11:57;26.60;41.40
42973;DHT22;28610;51.214;6.962;2022-07-03T06:14:42;27.20;39.20
42973;DHT22;28610;51.214;6.962;2022-07-03T06:17:28;27.00;38.70
42973;DHT22;28610;51.214;6.962;2022-07-03T06:20:14;27.50;37.20
42973;DHT22;28610;51.214;6.962;2022-07-03T06:23:00;27.70;37.60
42973;DHT22;28610;51.214;6.962;2022-07-03T06:25:45;27.40;36.90
42973;DHT22;28610;51.214;6.962;2022-07-03T06:28:32;27.90;36.90
42973;DHT22;28610;51.214;6.962;2022-07-03T06:31:18;28.50;36.30
42973;DHT22;28610;51.214;6.962;2022-07-03T06:34:03;28.40;35.70
42973;DHT22;28610;51.214;6.962;2022-07-03T06:36:48;29.20;35.00
42973;DHT22;28610;51.214;6.962;2022-07-03T06:39:34;29.40;33.80
42973;DHT22;28610;51.214;6.962;2022-07-03T06:42:19;29.60;33.20
42973;DHT22;28610;51.214;6.962;2022-07-03T06:45:07;29.10;32.80
42973;DHT22;28610;51.214;6.962;2022-07-03T06:47:53;29.10;33.10
42973;DHT22;28610;51.214;6.962;2022-07-03T06:50:38;29.60;33.20
42973;DHT22;28610;51.214;6.962;2022-07-03T06:53:23;30.20;32.10
42973;DHT22;28610;51.214;6.962;2022-07-03T06:56:09;28.50;32.70
42973;DHT22;28610;51.214;6.962;2022-07-03T06:58:54;29.10;32.20
42973;DHT22;28610;51.214;6.962;2022-07-03T07:01:41;29.70;32.20
42973;DHT22;28610;51.214;6.962;2022-07-03T07:04:27;29.80;32.90
42973;DHT22;28610;51.214;6.962;2022-07-03T07:07:12;30.40;30.20
42973;DHT22;28610;51.214;6.962;2022-07-03T07:09:58;30.60;30.40
42973;DHT22;28610;51.214;6.962;2022-07-03T07:12:43;30.70;30.20
42973;DHT22;28610;51.214;6.962;2022-07-03T07:15:29;31.20;29.30
42973;DHT22;28610;51.214;6.962;2022-07-03T07:18:15;31.20;28.70
42973;DHT22;28610;51.214;6.962;2022-07-03T07:21:01;31.50;30.00
42973;DHT22;28610;51.214;6.962;2022-07-03T07:23:46;31.40;29.40
42973;DHT22;28610;51.214;6.962;2022-07-03T07:26:32;31.40;29.40
42973;DHT22;28610;51.214;6.962;2022-07-03T07:29:18;31.50;29.60
42973;DHT22;28610;51.214;6.962;2022-07-03T07:32:04;31.10;29.00
42973;DHT22;28610;51.214;6.962;2022-07-03T07:34:51;31.40;28.90
42973;DHT22;28610;51.214;6.962;2022-07-03T07:37:36;31.10;29.00
42973;DHT22;28610;51.214;6.962;2022-07-03T07:40:22;31.70;28.20
42973;DHT22;28610;51.214;6.962;2022-07-03T07:43:07;32.30;28.60
42973;DHT22;28610;51.214;6.962;2022-07-03T07:45:53;32.70;27.40
42973;DHT22;28610;51.214;6.962;2022-07-03T07:48:38;32.20;27.10
42973;DHT22;28610;51.214;6.962;2022-07-03T07:51:25;32.10;27.10
42973;DHT22;28610;51.214;6.962;2022-07-03T07:54:10;32.10;27.00
42973;DHT22;28610;51.214;6.962;2022-07-03T07:56:56;32.20;26.70
42973;DHT22;28610;51.214;6.962;2022-07-03T07:59:41;33.00;26.20
42973;DHT22;28610;51.214;6.962;2022-07-03T08:02:27;32.20;26.30
42973;DHT22;28610;51.214;6.962;2022-07-03T08:05:30;31.80;27.20
42973;DHT22;28610;51.214;6.962;2022-07-03T08:08:23;31.90;27.80
42973;DHT22;28610;51.214;6.962;2022-07-03T08:11:08;30.60;28.40
42973;DHT22;28610;51.214;6.962;2022-07-03T08:13:54;30.80;27.30
42973;DHT22;28610;51.214;6.962;2022-07-03T08:16:39;31.40;27.30
42973;DHT22;28610;51.214;6.962;2022-07-03T08:19:26;31.90;26.60
42973;DHT22;28610;51.214;6.962;2022-07-03T08:22:12;31.30;26.40
42973;DHT22;28610;51.214;6.962;2022-07-03T08:24:58;31.90;26.20
42973;DHT22;28610;51.214;6.962;2022-07-03T08:27:44;31.60;27.10
42973;DHT22;28610;51.214;6.962;2022-07-03T08:30:29;32.60;26.00
42973;DHT22;28610;51.214;6.962;2022-07-03T08:33:15;33.30;25.00
42973;DHT22;28610;51.214;6.962;2022-07-03T08:36:00;34.40;24.50
42973;DHT22;28610;51.214;6.962;2022-07-03T08:38:45;34.50;23.90
42973;DHT22;28610;51.214;6.962;2022-07-03T08:41:33;34.10;23.90
42973;DHT22;28610;51.214;6.962;2022-07-03T08:44:22;33.50;24.30
42973;DHT22;28610;51.214;6.962;2022-07-03T08:47:11;33.20;25.20
42973;DHT22;28610;51.214;6.962;2022-07-03T08:49:57;31.90;25.50
42973;DHT22;28610;51.214;6.962;2022-07-03T08:52:44;31.50;25.30
42973;DHT22;28610;51.214;6.962;2022-07-03T08:55:30;32.40;26.20
42973;DHT22;28610;51.214;6.962;2022-07-03T08:58:16;33.50;24.90
42973;DHT22;28610;51.214;6.962;2022-07-03T09:01:03;33.80;23.90
42973;DHT22;28610;51.214;6.962;2022-07-03T09:03:48;33.40;24.30
42973;DHT22;28610;51.214;6.962;2022-07-03T09:06:35;32.50;24.70
42973;DHT22;28610;51.214;6.962;2022-07-03T09:09:21;31.90;25.70
42973;DHT22;28610;51.214;6.962;2022-07-03T09:12:07;33.00;24.50
42973;DHT22;28610;51.214;6.962;2022-07-03T09:14:54;33.10;24.20
42973;DHT22;28610;51.214;6.962;2022-07-03T09:17:40;32.90;24.80
42973;DHT22;28610;51.214;6.962;2022-07-03T09:20:41;33.30;24.30
42973;DHT22;28610;51.214;6.962;2022-07-03T09:23:35;32.40;24.50
42973;DHT22;28610;51.214;6.962;2022-07-03T09:26:21;32.10;26.10
42973;DHT22;28610;51.214;6.962;2022-07-03T09:29:12;32.40;24.60
42973;DHT22;28610;51.214;6.962;2022-07-03T09:31:59;32.20;25.00
42973;DHT22;28610;51.214;6.962;2022-07-03T09:34:45;34.20;24.40
42973;DHT22;28610;51.214;6.962;2022-07-03T09:37:30;34.80;23.20
42973;DHT22;28610;51.214;6.962;2022-07-03T09:40:18;34.20;23.10
42973;DHT22;28610;51.214;6.962;2022-07-03T09:43:06;35.30;23.10
42973;DHT22;28610;51.214;6.962;2022-07-03T09:45:54;35.40;22.50
42973;DHT22;28610;51.214;6.962;2022-07-03T09:48:42;34.90;22.20
42973;DHT22;28610;51.214;6.962;2022-07-03T09:51:27;35.70;22.40
42973;DHT22;28610;51.214;6.962;2022-07-03T09:54:15;34.60;22.80
42973;DHT22;28610;51.214;6.962;2022-07-03T09:57:00;33.40;23.10
42973;DHT22;28610;51.214;6.962;2022-07-03T09:59:46;33.40;23.30
42973;DHT22;28610;51.214;6.962;2022-07-03T10:02:31;33.60;24.20
42973;DHT22;28610;51.214;6.962;2022-07-03T10:05:19;34.60;22.90
42973;DHT22;28610;51.214;6.962;2022-07-03T10:08:07;33.90;22.80
42973;DHT22;28610;51.214;6.962;2022-07-03T10:10:52;34.60;22.80
42973;DHT22;28610;51.214;6.962;2022-07-03T10:13:39;34.20;23.10
42973;DHT22;28610;51.214;6.962;2022-07-03T10:16:25;33.80;23.50
42973;DHT22;28610;51.214;6.962;2022-07-03T10:19:14;33.40;23.30
42973;DHT22;28610;51.214;6.962;2022-07-03T10:22:02;34.10;23.50
42973;DHT22;28610;51.214;6.962;2022-07-03T10:24:52;34.90;23.30
42973;DHT22;28610;51.214;6.962;2022-07-03T10:27:38;35.20;23.20
42973;DHT22;28610;51.214;6.962;2022-07-03T10:30:25;33.70;26.10
42973;DHT22;28610;51.214;6.962;2022-07-03T10:33:10;32.40;26.90
42973;DHT22;28610;51.214;6.962;2022-07-03T10:35:57;31.40;28.10
42973;DHT22;28610;51.214;6.962;2022-07-03T10:38:46;29.80;29.80
42973;DHT22;28610;51.214;6.962;2022-07-03T10:41:35;30.00;30.90
42973;DHT22;28610;51.214;6.962;2022-07-03T10:45:05;30.10;31.00
42973;DHT22;28610;51.214;6.962;2022-07-03T10:47:51;30.30;30.30
42973;DHT22;28610;51.214;6.962;2022-07-03T10:50:36;30.10;30.10
42973;DHT22;28610;51.214;6.962;2022-07-03T10:53:23;29.20;30.00
42973;DHT22;28610;51.214;6.962;2022-07-03T10:56:10;29.20;31.30
42973;DHT22;28610;51.214;6.962;2022-07-03T10:58:56;29.10;31.80
42973;DHT22;28610;51.214;6.962;2022-07-03T11:01:41;29.30;32.10
42973;DHT22;28610;51.214;6.962;2022-07-03T11:08:04;29.70;31.70
42973;DHT22;28610;51.214;6.962;2022-07-03T11:10:50;29.50;31.30
42973;DHT22;28610;51.214;6.962;2022-07-03T11:14:21;29.50;31.70
42973;DHT22;28610;51.214;6.962;2022-07-03T11:17:21;28.90;32.10
42973;DHT22;28610;51.214;6.962;2022-07-03T11:20:07;29.00;31.30
42973;DHT22;28610;51.214;6.962;2022-07-03T11:23:17;28.80;31.30
42973;DHT22;28610;51.214;6.962;2022-07-03T11:26:21;28.80;31.50
42973;DHT22;28610;51.214;6.962;2022-07-03T11:29:07;29.20;32.00
42973;DHT22;28610;51.214;6.962;2022-07-03T11:31:53;28.70;32.10
42973;DHT22;28610;51.214;6.962;2022-07-03T11:34:42;28.40;32.30
42973;DHT22;28610;51.214;6.962;2022-07-03T11:37:29;29.00;32.30
42973;DHT22;28610;51.214;6.962;2022-07-03T11:40:17;29.10;32.00
42973;DHT22;28610;51.214;6.962;2022-07-03T11:43:03;28.90;31.40
42973;DHT22;28610;51.214;6.962;2022-07-03T11:45:50;29.00;33.60
42973;DHT22;28610;51.214;6.962;2022-07-03T11:48:37;29.10;31.60
42973;DHT22;28610;51.214;6.962;2022-07-03T11:51:22;29.10;30.90
42973;DHT22;28610;51.214;6.962;2022-07-03T11:54:08;28.70;30.80
42973;DHT22;28610;51.214;6.962;2022-07-03T11:56:53;29.00;31.30
42973;DHT22;28610;51.214;6.962;2022-07-03T11:59:38;29.10;31.10
42973;DHT22;28610;51.214;6.962;2022-07-03T12:02:24;29.10;32.00
42973;DHT22;28610;51.214;6.962;2022-07-03T12:05:15;29.20;31.50
42973;DHT22;28610;51.214;6.962;2022-07-03T12:08:03;29.10;31.10
42973;DHT22;28610;51.214;6.962;2022-07-03T12:10:49;28.80;31.20
42973;DHT22;28610;51.214;6.962;2022-07-03T12:13:35;29.20;30.90
42973;DHT22;28610;51.214;6.962;2022-07-03T12:16:31;29.30;31.60
42973;DHT22;28610;51.214;6.962;2022-07-03T12:19:17;29.40;32.40
42973;DHT22;28610;51.214;6.962;2022-07-03T12:22:04;29.10;31.90
42973;DHT22;28610;51.214;6.962;2022-07-03T12:24:57;28.90;31.40
42973;DHT22;28610;51.214;6.962;2022-07-03T12:27:45;28.80;31.40
42973;DHT22;28610;51.214;6.962;2022-07-03T12:30:30;28.90;31.20
42973;DHT22;28610;51.214;6.962;2022-07-03T12:33:16;29.20;32.00
42973;DHT22;28610;51.214;6.962;2022-07-03T12:36:06;29.30;32.50
42973;DHT22;28610;51.214;6.962;2022-07-03T12:38:56;28.90;29.80
42973;DHT22;28610;51.214;6.962;2022-07-03T12:41:41;29.50;29.70
42973;DHT22;28610;51.214;6.962;2022-07-03T12:44:26;29.60;29.30
42973;DHT22;28610;51.214;6.962;2022-07-03T12:47:16;29.80;30.00
42973;DHT22;28610;51.214;6.962;2022-07-03T12:50:03;29.50;30.60
42973;DHT22;28610;51.214;6.962;2022-07-03T12:52:50;29.30;29.90
42973;DHT22;28610;51.214;6.962;2022-07-03T12:55:44;28.70;31.70
42973;DHT22;28610;51.214;6.962;2022-07-03T12:58:29;28.40;31.20
42973;DHT22;28610;51.214;6.962;2022-07-03T13:01:34;28.60;31.70
42973;DHT22;28610;51.214;6.962;2022-07-03T13:04:30;28.70;31.20
42973;DHT22;28610;51.214;6.962;2022-07-03T13:07:16;28.60;31.60
42973;DHT22;28610;51.214;6.962;2022-07-03T13:10:02;28.30;31.60
42973;DHT22;28610;51.214;6.962;2022-07-03T13:12:51;28.50;32.50
42973;DHT22;28610;51.214;6.962;2022-07-03T13:15:37;28.20;32.00
42973;DHT22;28610;51.214;6.962;2022-07-03T13:18:22;27.80;32.60
42973;DHT22;28610;51.214;6.962;2022-07-03T13:21:08;27.90;33.00
42973;DHT22;28610;51.214;6.962;2022-07-03T13:23:55;27.90;32.70
42973;DHT22;28610;51.214;6.962;2022-07-03T13:26:41;28.20;33.00
42973;DHT22;28610;51.214;6.962;2022-07-03T13:29:28;28.30;32.20
42973;DHT22;28610;51.214;6.962;2022-07-03T13:32:13;28.30;32.40
42973;DHT22;28610;51.214;6.962;2022-07-03T13:34:59;27.80;32.90
42973;DHT22;28610;51.214;6.962;2022-07-03T13:37:44;27.60;33.90
42973;DHT22;28610;51.214;6.962;2022-07-03T13:40:30;27.60;34.40
42973;DHT22;28610;51.214;6.962;2022-07-03T13:43:15;27.30;34.40
42973;DHT22;28610;51.214;6.962;2022-07-03T13:46:02;27.40;34.80
42973;DHT22;28610;51.214;6.962;2022-07-03T13:48:48;26.80;35.20
42973;DHT22;28610;51.214;6.962;2022-07-03T13:51:33;26.60;35.40
42973;DHT22;28610;51.214;6.962;2022-07-03T13:54:19;26.80;35.40
42973;DHT22;28610;51.214;6.962;2022-07-03T13:57:04;27.00;35.60
42973;DHT22;28610;51.214;6.962;2022-07-03T13:59:50;27.40;34.80
42973;DHT22;28610;51.214;6.962;2022-07-03T14:02:37;27.40;33.90
42973;DHT22;28610;51.214;6.962;2022-07-03T14:05:23;27.20;33.60
42973;DHT22;28610;51.214;6.962;2022-07-03T14:08:08;27.10;36.20
42973;DHT22;28610;51.214;6.962;2022-07-03T14:10:54;26.80;35.40
42973;DHT22;28610;51.214;6.962;2022-07-03T14:13:39;27.40;35.70
42973;DHT22;28610;51.214;6.962;2022-07-03T14:16:25;27.80;35.10
42973;DHT22;28610;51.214;6.962;2022-07-03T14:19:12;27.80;33.80
42973;DHT22;28610;51.214;6.962;2022-07-03T14:21:57;28.10;35.00
42973;DHT22;28610;51.214;6.962;2022-07-03T14:24:42;28.10;34.00
42973;DHT22;28610;51.214;6.962;2022-07-03T14:27:28;28.30;34.10
42973;DHT22;28610;51.214;6.962;2022-07-03T14:30:31;27.80;34.30
42973;DHT22;28610;51.214;6.962;2022-07-03T14:33:34;28.30;33.30
42973;DHT22;28610;51.214;6.962;2022-07-03T14:36:21;27.70;33.30
42973;DHT22;28610;51.214;6.962;2022-07-03T14:39:06;27.60;33.40
42973;DHT22;28610;51.214;6.962;2022-07-03T14:41:52;27.60;33.40
42973;DHT22;28610;51.214;6.962;2022-07-03T14:44:37;27.30;34.60
42973;DHT22;28610;51.214;6.962;2022-07-03T14:47:23;26.90;34.80
42973;DHT22;28610;51.214;6.962;2022-07-03T14:50:08;26.60;36.40
42973;DHT22;28610;51.214;6.962;2022-07-03T14:52:55;26.70;36.10
42973;DHT22;28610;51.214;6.962;2022-07-03T14:55:41;26.40;37.00
42973;DHT22;28610;51.214;6.962;2022-07-03T14:58:27;26.50;37.30
42973;DHT22;28610;51.214;6.962;2022-07-03T15:01:16;26.80;37.00
42973;DHT22;28610;51.214;6.962;2022-07-03T15:04:02;26.60;36.90
42973;DHT22;28610;51.214;6.962;2022-07-03T15:06:48;27.00;37.00
42973;DHT22;28610;51.214;6.962;2022-07-03T15:09:37;27.20;36.60
42973;DHT22;28610;51.214;6.962;2022-07-03T15:12:23;27.50;35.70
42973;DHT22;28610;51.214;6.962;2022-07-03T15:15:14;27.10;35.50
42973;DHT22;28610;51.214;6.962;2022-07-03T15:18:01;27.10;36.10
42973;DHT22;28610;51.214;6.962;2022-07-03T15:20:48;27.10;36.80
42973;DHT22;28610;51.214;6.962;2022-07-03T15:23:34;27.20;36.50
42973;DHT22;28610;51.214;6.962;2022-07-03T15:26:22;27.30;35.30
42973;DHT22;28610;51.214;6.962;2022-07-03T15:29:10;27.50;34.30
42973;DHT22;28610;51.214;6.962;2022-07-03T15:31:55;27.50;34.90
42973;DHT22;28610;51.214;6.962;2022-07-03T15:34:46;27.30;35.10
42973;DHT22;28610;51.214;6.962;2022-07-03T15:37:39;26.40;35.20
42973;DHT22;28610;51.214;6.962;2022-07-03T15:40:30;26.20;36.40
42973;DHT22;28610;51.214;6.962;2022-07-03T15:43:29;26.20;36.10
42973;DHT22;28610;51.214;6.962;2022-07-03T15:46:27;26.30;36.90
42973;DHT22;28610;51.214;6.962;2022-07-03T15:49:28;26.50;36.70
42973;DHT22;28610;51.214;6.962;2022-07-03T15:52:17;26.00;36.40
42973;DHT22;28610;51.214;6.962;2022-07-03T15:55:05;25.90;36.80
42973;DHT22;28610;51.214;6.962;2022-07-03T15:57:52;25.50;37.20
42973;DHT22;28610;51.214;6.962;2022-07-03T16:00:41;25.30;38.10
42973;DHT22;28610;51.214;6.962;2022-07-03T16:03:53;25.20;38.50
42973;DHT22;28610;51.214;6.962;2022-07-03T16:06:41;25.40;38.00
42973;DHT22;28610;51.214;6.962;2022-07-03T16:09:27;25.40;38.30
42973;DHT22;28610;51.214;6.962;2022-07-03T16:12:14;25.60;38.30
42973;DHT22;28610;51.214;6.962;2022-07-03T16:15:02;25.40;38.90
42973;DHT22;28610;51.214;6.962;2022-07-03T16:17:52;25.70;39.00
42973;DHT22;28610;51.214;6.962;2022-07-03T16:20:42;26.00;37.50
42973;DHT22;28610;51.214;6.962;2022-07-03T16:23:29;26.20;37.10
42973;DHT22;28610;51.214;6.962;2022-07-03T16:26:15;26.00;36.80
42973;DHT22;28610;51.214;6.962;2022-07-03T16:29:01;25.90;37.50
42973;DHT22;28610;51.214;6.962;2022-07-03T16:31:49;26.00;37.60
42973;DHT22;28610;51.214;6.962;2022-07-03T16:34:38;26.00;37.00
42973;DHT22;28610;51.214;6.962;2022-07-03T16:37:32;25.80;37.50
42973;DHT22;28610;51.214;6.962;2022-07-03T16:40:21;25.70;37.80
42973;DHT22;28610;51.214;6.962;2022-07-03T16:43:08;25.90;38.30
42973;DHT22;28610;51.214;6.962;2022-07-03T16:45:57;25.80;37.60
42973;DHT22;28610;51.214;6.962;2022-07-03T16:48:46;25.90;38.40
42973;DHT22;28610;51.214;6.962;2022-07-03T16:51:34;25.80;37.20
42973;DHT22;28610;51.214;6.962;2022-07-03T16:54:20;25.30;37.10
42973;DHT22;28610;51.214;6.962;2022-07-03T16:57:07;25.30;37.40
42973;DHT22;28610;51.214;6.962;2022-07-03T16:59:53;25.10;38.50
42973;DHT22;28610;51.214;6.962;2022-07-03T17:02:38;24.90;38.50
42973;DHT22;28610;51.214;6.962;2022-07-03T17:05:26;25.00;38.70
42973;DHT22;28610;51.214;6.962;2022-07-03T17:08:14;24.90;38.00
42973;DHT22;28610;51.214;6.962;2022-07-03T17:11:01;24.80;39.00
42973;DHT22;28610;51.214;6.962;2022-07-03T17:13:46;25.10;38.20
42973;DHT22;28610;51.214;6.962;2022-07-03T17:16:44;25.30;37.50
42973;DHT22;28610;51.214;6.962;2022-07-03T17:19:31;25.20;37.40
42973;DHT22;28610;51.214;6.962;2022-07-03T17:22:20;25.10;37.20
42973;DHT22;28610;51.214;6.962;2022-07-03T17:25:13;25.10;37.10
42973;DHT22;28610;51.214;6.962;2022-07-03T17:28:02;24.80;36.60
42973;DHT22;28610;51.214;6.962;2022-07-03T17:30:51;24.90;37.40
42973;DHT22;28610;51.214;6.962;2022-07-03T17:33:37;25.00;37.40
42973;DHT22;28610;51.214;6.962;2022-07-03T17:36:26;24.80;37.20
42973;DHT22;28610;51.214;6.962;2022-07-03T17:39:13;24.80;36.10
42973;DHT22;28610;51.214;6.962;2022-07-03T17:42:03;24.60;36.20
42973;DHT22;28610;51.214;6.962;2022-07-03T17:44:49;24.60;35.90